sensor_id;sensor_type;location;lat;lon;timestamp;P1;durP1;ratioP1;P2;durP2;ratioP2
9761;SDS011;4920;49.594;11.022;2023-05-29T00:02:26;6.73;;;3.60;;
9761;SDS011;4920;49.594;11.022;2023-05-29T00:04:55;8.13;;;3.83;;
9761;SDS011;4920;49.594;11.022;2023-05-29T00:07:24;7.80;;;3.43;;
9761;SDS011;4920;49.594;11.022;2023-05-29T00:09:53;7.13;;;3.90;;
9761;SDS011;4920;49.594;11.022;2023-05-29T00:12:22;7.83;;;3.43;;
9761;SDS011;4920;49.594;11.022;2023-05-29T00:14:50;6.13;;;3.40;;
9761;SDS011;4920;49.594;11.022;2023-05-29T00:17:19;4.83;;;3.50;;
9761;SDS011;4920;49.594;11.022;2023-05-29T00:19:50;5.87;;;3.60;;
9761;SDS011;4920;49.594;11.022;2023-05-29T00:22:19;6.13;;;3.47;;
9761;SDS011;4920;49.594;11.022;2023-05-29T00:24:47;8.07;;;3.50;;
9761;SDS011;4920;49.594;11.022;2023-05-29T00:27:16;8.57;;;3.70;;
9761;SDS011;4920;49.594;11.022;2023-05-29T00:29:45;5.87;;;3.50;;
9761;SDS011;4920;49.594;11.022;2023-05-29T00:32:13;5.70;;;3.50;;
9761;SDS011;4920;49.594;11.022;2023-05-29T00:34:44;5.10;;;3.77;;
9761;SDS011;4920;49.594;11.022;2023-05-29T00:37:14;12.53;;;3.40;;
9761;SDS011;4920;49.594;11.022;2023-05-29T00:39:43;5.33;;;3.30;;
9761;SDS011;4920;49.594;11.022;2023-05-29T00:42:12;6.47;;;3.40;;
9761;SDS011;4920;49.594;11.022;2023-05-29T00:44:40;5.17;;;3.57;;
9761;SDS011;4920;49.594;11.022;2023-05-29T00:47:09;4.73;;;3.40;;
9761;SDS011;4920;49.594;11.022;2023-05-29T00:49:38;7.57;;;4.20;;
9761;SDS011;4920;49.594;11.022;2023-05-29T00:52:08;6.43;;;3.77;;
9761;SDS011;4920;49.594;11.022;2023-05-29T00:54:43;5.97;;;4.30;;
9761;SDS011;4920;49.594;11.022;2023-05-29T00:57:13;6.47;;;4.10;;
9761;SDS011;4920;49.594;11.022;2023-05-29T00:59:43;6.40;;;3.70;;
9761;SDS011;4920;49.594;11.022;2023-05-29T01:02:14;6.33;;;3.70;;
9761;SDS011;4920;49.594;11.022;2023-05-29T01:04:45;5.83;;;3.87;;
9761;SDS011;4920;49.594;11.022;2023-05-29T01:07:14;7.70;;;4.07;;
9761;SDS011;4920;49.594;11.022;2023-05-29T01:09:44;5.73;;;3.90;;
9761;SDS011;4920;49.594;11.022;2023-05-29T01:12:16;8.77;;;3.90;;
9761;SDS011;4920;49.594;11.022;2023-05-29T01:15:01;9.53;;;4.57;;
9761;SDS011;4920;49.594;11.022;2023-05-29T01:17:41;6.60;;;4.10;;
9761;SDS011;4920;49.594;11.022;2023-05-29T01:20:23;8.10;;;3.90;;
9761;SDS011;4920;49.594;11.022;2023-05-29T01:23:07;8.10;;;3.80;;
9761;SDS011;4920;49.594;11.022;2023-05-29T01:25:58;6.40;;;3.83;;
9761;SDS011;4920;49.594;11.022;2023-05-29T01:28:40;6.47;;;3.80;;
9761;SDS011;4920;49.594;11.022;2023-05-29T01:31:12;7.00;;;4.17;;
9761;SDS011;4920;49.594;11.022;2023-05-29T01:33:42;7.43;;;4.57;;
9761;SDS011;4920;49.594;11.022;2023-05-29T01:36:19;6.00;;;3.83;;
9761;SDS011;4920;49.594;11.022;2023-05-29T01:38:48;5.73;;;4.07;;
9761;SDS011;4920;49.594;11.022;2023-05-29T01:41:19;5.23;;;3.57;;
9761;SDS011;4920;49.594;11.022;2023-05-29T01:43:51;6.17;;;3.87;;
9761;SDS011;4920;49.594;11.022;2023-05-29T01:46:20;6.33;;;3.70;;
9761;SDS011;4920;49.594;11.022;2023-05-29T01:48:52;5.53;;;3.90;;
9761;SDS011;4920;49.594;11.022;2023-05-29T01:51:22;7.47;;;3.90;;
9761;SDS011;4920;49.594;11.022;2023-05-29T01:53:51;7.10;;;3.93;;
9761;SDS011;4920;49.594;11.022;2023-05-29T01:56:19;7.10;;;4.00;;
9761;SDS011;4920;49.594;11.022;2023-05-29T01:58:51;6.33;;;3.83;;
9761;SDS011;4920;49.594;11.022;2023-05-29T02:01:20;5.80;;;4.17;;
9761;SDS011;4920;49.594;11.022;2023-05-29T02:03:49;7.70;;;3.83;;
9761;SDS011;4920;49.594;11.022;2023-05-29T02:06:19;8.33;;;4.30;;
9761;SDS011;4920;49.594;11.022;2023-05-29T02:08:48;10.63;;;4.40;;
9761;SDS011;4920;49.594;11.022;2023-05-29T02:11:17;6.63;;;4.63;;
9761;SDS011;4920;49.594;11.022;2023-05-29T02:13:46;7.03;;;4.07;;
9761;SDS011;4920;49.594;11.022;2023-05-29T02:16:17;8.07;;;4.23;;
9761;SDS011;4920;49.594;11.022;2023-05-29T02:18:47;6.60;;;4.17;;
9761;SDS011;4920;49.594;11.022;2023-05-29T02:21:17;7.40;;;4.70;;
9761;SDS011;4920;49.594;11.022;2023-05-29T02:23:46;6.93;;;4.60;;
9761;SDS011;4920;49.594;11.022;2023-05-29T02:26:16;6.53;;;4.50;;
9761;SDS011;4920;49.594;11.022;2023-05-29T02:28:45;7.53;;;4.70;;
9761;SDS011;4920;49.594;11.022;2023-05-29T02:31:13;8.03;;;4.37;;
9761;SDS011;4920;49.594;11.022;2023-05-29T02:33:43;8.83;;;4.67;;
9761;SDS011;4920;49.594;11.022;2023-05-29T02:36:14;5.90;;;4.07;;
9761;SDS011;4920;49.594;11.022;2023-05-29T02:38:43;6.70;;;4.07;;
9761;SDS011;4920;49.594;11.022;2023-05-29T02:41:12;7.67;;;4.60;;
9761;SDS011;4920;49.594;11.022;2023-05-29T02:43:41;8.17;;;4.80;;
9761;SDS011;4920;49.594;11.022;2023-05-29T02:46:09;8.70;;;4.47;;
9761;SDS011;4920;49.594;11.022;2023-05-29T02:48:38;7.93;;;4.60;;
9761;SDS011;4920;49.594;11.022;2023-05-29T02:51:08;8.47;;;4.50;;
9761;SDS011;4920;49.594;11.022;2023-05-29T02:53:37;7.17;;;4.50;;
9761;SDS011;4920;49.594;11.022;2023-05-29T02:56:07;7.53;;;4.43;;
9761;SDS011;4920;49.594;11.022;2023-05-29T02:58:36;7.63;;;4.30;;
9761;SDS011;4920;49.594;11.022;2023-05-29T03:01:04;8.07;;;4.13;;
9761;SDS011;4920;49.594;11.022;2023-05-29T03:03:33;5.97;;;4.30;;
9761;SDS011;4920;49.594;11.022;2023-05-29T03:06:02;6.67;;;4.20;;
9761;SDS011;4920;49.594;11.022;2023-05-29T03:08:34;6.67;;;4.33;;
9761;SDS011;4920;49.594;11.022;2023-05-29T03:11:07;9.50;;;4.73;;
9761;SDS011;4920;49.594;11.022;2023-05-29T03:13:37;7.47;;;4.30;;
9761;SDS011;4920;49.594;11.022;2023-05-29T03:16:08;6.20;;;4.03;;
9761;SDS011;4920;49.594;11.022;2023-05-29T03:18:39;6.80;;;4.10;;
9761;SDS011;4920;49.594;11.022;2023-05-29T03:21:07;7.13;;;4.13;;
9761;SDS011;4920;49.594;11.022;2023-05-29T03:23:38;8.07;;;4.10;;
9761;SDS011;4920;49.594;11.022;2023-05-29T03:26:07;6.90;;;4.30;;
9761;SDS011;4920;49.594;11.022;2023-05-29T03:28:38;7.23;;;4.17;;
9761;SDS011;4920;49.594;11.022;2023-05-29T03:31:08;7.53;;;4.60;;
9761;SDS011;4920;49.594;11.022;2023-05-29T03:33:37;7.30;;;4.77;;
9761;SDS011;4920;49.594;11.022;2023-05-29T03:36:19;7.13;;;3.73;;
9761;SDS011;4920;49.594;11.022;2023-05-29T03:38:50;8.57;;;4.83;;
9761;SDS011;4920;49.594;11.022;2023-05-29T03:41:19;6.97;;;4.50;;
9761;SDS011;4920;49.594;11.022;2023-05-29T03:43:52;10.30;;;4.60;;
9761;SDS011;4920;49.594;11.022;2023-05-29T03:46:23;8.50;;;4.07;;
9761;SDS011;4920;49.594;11.022;2023-05-29T03:48:52;5.57;;;4.60;;
9761;SDS011;4920;49.594;11.022;2023-05-29T03:51:21;6.63;;;4.40;;
9761;SDS011;4920;49.594;11.022;2023-05-29T03:53:54;8.93;;;4.40;;
9761;SDS011;4920;49.594;11.022;2023-05-29T03:56:23;8.27;;;4.87;;
9761;SDS011;4920;49.594;11.022;2023-05-29T03:58:52;7.13;;;4.60;;
9761;SDS011;4920;49.594;11.022;2023-05-29T04:01:21;8.87;;;4.87;;
9761;SDS011;4920;49.594;11.022;2023-05-29T04:03:50;7.77;;;4.63;;
9761;SDS011;4920;49.594;11.022;2023-05-29T04:06:19;8.60;;;4.50;;
9761;SDS011;4920;49.594;11.022;2023-05-29T04:08:49;7.33;;;4.60;;
9761;SDS011;4920;49.594;11.022;2023-05-29T04:11:19;5.90;;;4.40;;
9761;SDS011;4920;49.594;11.022;2023-05-29T04:13:49;6.67;;;4.80;;
9761;SDS011;4920;49.594;11.022;2023-05-29T04:16:17;9.63;;;4.97;;
9761;SDS011;4920;49.594;11.022;2023-05-29T04:18:47;8.07;;;4.87;;
9761;SDS011;4920;49.594;11.022;2023-05-29T04:21:16;7.17;;;4.50;;
9761;SDS011;4920;49.594;11.022;2023-05-29T04:23:45;7.10;;;4.93;;
9761;SDS011;4920;49.594;11.022;2023-05-29T04:26:14;11.73;;;4.97;;
9761;SDS011;4920;49.594;11.022;2023-05-29T04:28:45;7.33;;;4.40;;
9761;SDS011;4920;49.594;11.022;2023-05-29T04:31:16;7.93;;;4.60;;
9761;SDS011;4920;49.594;11.022;2023-05-29T04:33:45;5.70;;;4.33;;
9761;SDS011;4920;49.594;11.022;2023-05-29T04:36:15;6.13;;;4.23;;
9761;SDS011;4920;49.594;11.022;2023-05-29T04:38:46;7.43;;;4.57;;
9761;SDS011;4920;49.594;11.022;2023-05-29T04:41:20;7.47;;;4.22;;
9761;SDS011;4920;49.594;11.022;2023-05-29T04:43:57;6.70;;;4.53;;
9761;SDS011;4920;49.594;11.022;2023-05-29T04:46:33;6.38;;;4.00;;
9761;SDS011;4920;49.594;11.022;2023-05-29T04:49:03;7.75;;;4.47;;
9761;SDS011;4920;49.594;11.022;2023-05-29T04:51:32;8.25;;;4.43;;
9761;SDS011;4920;49.594;11.022;2023-05-29T04:54:00;6.32;;;3.90;;
9761;SDS011;4920;49.594;11.022;2023-05-29T04:56:29;6.32;;;4.10;;
9761;SDS011;4920;49.594;11.022;2023-05-29T04:58:59;5.18;;;3.78;;
9761;SDS011;4920;49.594;11.022;2023-05-29T05:01:28;7.53;;;4.20;;
9761;SDS011;4920;49.594;11.022;2023-05-29T05:04:00;6.43;;;3.95;;
9761;SDS011;4920;49.594;11.022;2023-05-29T05:06:29;7.65;;;3.97;;
9761;SDS011;4920;49.594;11.022;2023-05-29T05:08:58;6.20;;;4.05;;
9761;SDS011;4920;49.594;11.022;2023-05-29T05:11:27;5.35;;;3.80;;
9761;SDS011;4920;49.594;11.022;2023-05-29T05:13:56;5.57;;;3.85;;
9761;SDS011;4920;49.594;11.022;2023-05-29T05:16:27;8.70;;;3.90;;
9761;SDS011;4920;49.594;11.022;2023-05-29T05:18:56;9.80;;;4.30;;
9761;SDS011;4920;49.594;11.022;2023-05-29T05:21:24;5.93;;;3.75;;
9761;SDS011;4920;49.594;11.022;2023-05-29T05:23:54;5.82;;;4.00;;
9761;SDS011;4920;49.594;11.022;2023-05-29T05:26:25;8.23;;;4.25;;
9761;SDS011;4920;49.594;11.022;2023-05-29T05:28:54;5.05;;;3.78;;
9761;SDS011;4920;49.594;11.022;2023-05-29T05:31:28;8.75;;;4.10;;
9761;SDS011;4920;49.594;11.022;2023-05-29T05:33:57;6.63;;;3.67;;
9761;SDS011;4920;49.594;11.022;2023-05-29T05:36:27;5.28;;;3.65;;
9761;SDS011;4920;49.594;11.022;2023-05-29T05:39:01;4.75;;;3.40;;
9761;SDS011;4920;49.594;11.022;2023-05-29T05:41:30;5.00;;;3.35;;
9761;SDS011;4920;49.594;11.022;2023-05-29T05:44:00;6.53;;;3.58;;
9761;SDS011;4920;49.594;11.022;2023-05-29T05:46:39;6.28;;;3.13;;
9761;SDS011;4920;49.594;11.022;2023-05-29T05:49:08;6.18;;;3.40;;
9761;SDS011;4920;49.594;11.022;2023-05-29T05:51:37;4.22;;;3.38;;
9761;SDS011;4920;49.594;11.022;2023-05-29T05:54:06;5.97;;;3.50;;
9761;SDS011;4920;49.594;11.022;2023-05-29T05:56:35;6.10;;;3.20;;
9761;SDS011;4920;49.594;11.022;2023-05-29T05:59:06;6.22;;;3.20;;
9761;SDS011;4920;49.594;11.022;2023-05-29T06:01:35;4.75;;;3.15;;
9761;SDS011;4920;49.594;11.022;2023-05-29T06:04:06;6.13;;;3.10;;
9761;SDS011;4920;49.594;11.022;2023-05-29T06:06:35;5.65;;;3.35;;
9761;SDS011;4920;49.594;11.022;2023-05-29T06:09:04;4.30;;;3.22;;
9761;SDS011;4920;49.594;11.022;2023-05-29T06:11:33;6.35;;;3.70;;
9761;SDS011;4920;49.594;11.022;2023-05-29T06:14:02;4.18;;;3.25;;
9761;SDS011;4920;49.594;11.022;2023-05-29T06:16:31;6.20;;;3.20;;
9761;SDS011;4920;49.594;11.022;2023-05-29T06:19:00;5.35;;;3.08;;
9761;SDS011;4920;49.594;11.022;2023-05-29T06:21:35;4.95;;;3.30;;
9761;SDS011;4920;49.594;11.022;2023-05-29T06:24:08;5.03;;;3.13;;
9761;SDS011;4920;49.594;11.022;2023-05-29T06:26:37;6.00;;;3.30;;
9761;SDS011;4920;49.594;11.022;2023-05-29T06:29:07;7.10;;;3.30;;
9761;SDS011;4920;49.594;11.022;2023-05-29T06:31:36;5.90;;;3.00;;
9761;SDS011;4920;49.594;11.022;2023-05-29T06:34:05;7.78;;;3.22;;
9761;SDS011;4920;49.594;11.022;2023-05-29T06:36:35;8.93;;;3.20;;
9761;SDS011;4920;49.594;11.022;2023-05-29T06:39:05;5.80;;;3.50;;
9761;SDS011;4920;49.594;11.022;2023-05-29T06:41:33;4.00;;;3.03;;
9761;SDS011;4920;49.594;11.022;2023-05-29T06:44:02;5.53;;;3.25;;
9761;SDS011;4920;49.594;11.022;2023-05-29T06:46:31;5.03;;;3.47;;
9761;SDS011;4920;49.594;11.022;2023-05-29T06:49:00;4.38;;;3.20;;
9761;SDS011;4920;49.594;11.022;2023-05-29T06:51:32;4.38;;;3.15;;
9761;SDS011;4920;49.594;11.022;2023-05-29T06:54:22;3.97;;;3.17;;
9761;SDS011;4920;49.594;11.022;2023-05-29T06:56:51;7.13;;;3.40;;
9761;SDS011;4920;49.594;11.022;2023-05-29T06:59:37;5.45;;;3.28;;
9761;SDS011;4920;49.594;11.022;2023-05-29T07:02:07;7.05;;;3.40;;
9761;SDS011;4920;49.594;11.022;2023-05-29T07:04:37;6.45;;;3.58;;
9761;SDS011;4920;49.594;11.022;2023-05-29T07:07:05;5.22;;;3.15;;
9761;SDS011;4920;49.594;11.022;2023-05-29T07:09:36;6.32;;;2.97;;
9761;SDS011;4920;49.594;11.022;2023-05-29T07:12:06;5.18;;;3.65;;
9761;SDS011;4920;49.594;11.022;2023-05-29T07:14:35;5.20;;;2.80;;
9761;SDS011;4920;49.594;11.022;2023-05-29T07:17:03;7.38;;;3.10;;
9761;SDS011;4920;49.594;11.022;2023-05-29T07:19:33;6.03;;;3.33;;
9761;SDS011;4920;49.594;11.022;2023-05-29T07:22:04;4.85;;;3.42;;
9761;SDS011;4920;49.594;11.022;2023-05-29T07:24:33;5.03;;;3.20;;
9761;SDS011;4920;49.594;11.022;2023-05-29T07:27:05;5.68;;;3.15;;
9761;SDS011;4920;49.594;11.022;2023-05-29T07:29:34;5.88;;;3.22;;
9761;SDS011;4920;49.594;11.022;2023-05-29T07:32:03;6.30;;;3.63;;
9761;SDS011;4920;49.594;11.022;2023-05-29T07:34:32;5.75;;;3.40;;
9761;SDS011;4920;49.594;11.022;2023-05-29T07:37:01;6.47;;;3.35;;
9761;SDS011;4920;49.594;11.022;2023-05-29T07:39:33;3.65;;;3.05;;
9761;SDS011;4920;49.594;11.022;2023-05-29T07:42:27;4.90;;;3.20;;
9761;SDS011;4920;49.594;11.022;2023-05-29T07:44:56;4.07;;;3.15;;
9761;SDS011;4920;49.594;11.022;2023-05-29T07:47:25;3.83;;;3.00;;
9761;SDS011;4920;49.594;11.022;2023-05-29T07:49:54;3.72;;;3.17;;
9761;SDS011;4920;49.594;11.022;2023-05-29T07:52:25;3.08;;;2.70;;
9761;SDS011;4920;49.594;11.022;2023-05-29T07:54:54;4.22;;;3.03;;
9761;SDS011;4920;49.594;11.022;2023-05-29T07:57:23;6.18;;;3.33;;
9761;SDS011;4920;49.594;11.022;2023-05-29T07:59:55;6.10;;;3.53;;
9761;SDS011;4920;49.594;11.022;2023-05-29T08:02:24;8.60;;;3.63;;
9761;SDS011;4920;49.594;11.022;2023-05-29T08:05:19;5.13;;;3.17;;
9761;SDS011;4920;49.594;11.022;2023-05-29T08:07:49;4.95;;;3.22;;
9761;SDS011;4920;49.594;11.022;2023-05-29T08:10:18;4.07;;;2.85;;
9761;SDS011;4920;49.594;11.022;2023-05-29T08:12:47;5.10;;;3.38;;
9761;SDS011;4920;49.594;11.022;2023-05-29T08:15:19;5.43;;;3.05;;
9761;SDS011;4920;49.594;11.022;2023-05-29T08:17:49;3.90;;;3.20;;
9761;SDS011;4920;49.594;11.022;2023-05-29T08:20:18;4.97;;;3.20;;
9761;SDS011;4920;49.594;11.022;2023-05-29T08:22:47;5.57;;;2.97;;
9761;SDS011;4920;49.594;11.022;2023-05-29T08:25:16;4.60;;;3.03;;
9761;SDS011;4920;49.594;11.022;2023-05-29T08:27:45;5.57;;;3.10;;
9761;SDS011;4920;49.594;11.022;2023-05-29T08:30:14;4.65;;;2.83;;
9761;SDS011;4920;49.594;11.022;2023-05-29T08:32:44;5.90;;;2.88;;
9761;SDS011;4920;49.594;11.022;2023-05-29T08:35:13;4.47;;;3.10;;
9761;SDS011;4920;49.594;11.022;2023-05-29T08:37:43;4.78;;;3.05;;
9761;SDS011;4920;49.594;11.022;2023-05-29T08:40:11;9.30;;;3.08;;
9761;SDS011;4920;49.594;11.022;2023-05-29T08:42:43;5.85;;;2.90;;
9761;SDS011;4920;49.594;11.022;2023-05-29T08:45:15;5.18;;;2.90;;
9761;SDS011;4920;49.594;11.022;2023-05-29T08:47:48;6.32;;;2.83;;
9761;SDS011;4920;49.594;11.022;2023-05-29T08:50:20;3.95;;;2.67;;
9761;SDS011;4920;49.594;11.022;2023-05-29T08:52:50;3.85;;;2.88;;
9761;SDS011;4920;49.594;11.022;2023-05-29T08:55:19;5.88;;;3.00;;
9761;SDS011;4920;49.594;11.022;2023-05-29T08:57:47;5.68;;;3.10;;
9761;SDS011;4920;49.594;11.022;2023-05-29T09:00:17;4.15;;;2.92;;
9761;SDS011;4920;49.594;11.022;2023-05-29T09:02:50;3.63;;;3.00;;
9761;SDS011;4920;49.594;11.022;2023-05-29T09:05:20;7.00;;;3.03;;
9761;SDS011;4920;49.594;11.022;2023-05-29T09:07:49;5.40;;;3.10;;
9761;SDS011;4920;49.594;11.022;2023-05-29T09:10:17;4.20;;;3.22;;
9761;SDS011;4920;49.594;11.022;2023-05-29T09:12:47;5.13;;;3.00;;
9761;SDS011;4920;49.594;11.022;2023-05-29T09:15:17;4.28;;;3.28;;
9761;SDS011;4920;49.594;11.022;2023-05-29T09:17:51;3.63;;;3.00;;
9761;SDS011;4920;49.594;11.022;2023-05-29T09:20:21;5.80;;;3.03;;
9761;SDS011;4920;49.594;11.022;2023-05-29T09:22:55;7.82;;;3.05;;
9761;SDS011;4920;49.594;11.022;2023-05-29T09:25:25;5.30;;;2.88;;
9761;SDS011;4920;49.594;11.022;2023-05-29T09:27:56;7.20;;;3.30;;
9761;SDS011;4920;49.594;11.022;2023-05-29T09:30:37;3.80;;;2.85;;
9761;SDS011;4920;49.594;11.022;2023-05-29T09:33:08;6.28;;;3.20;;
9761;SDS011;4920;49.594;11.022;2023-05-29T09:35:38;5.13;;;3.30;;
9761;SDS011;4920;49.594;11.022;2023-05-29T09:38:08;6.35;;;3.38;;
9761;SDS011;4920;49.594;11.022;2023-05-29T09:40:54;3.90;;;3.20;;
9761;SDS011;4920;49.594;11.022;2023-05-29T09:43:27;4.05;;;2.83;;
9761;SDS011;4920;49.594;11.022;2023-05-29T09:46:00;7.30;;;3.38;;
9761;SDS011;4920;49.594;11.022;2023-05-29T09:48:31;4.60;;;2.90;;
9761;SDS011;4920;49.594;11.022;2023-05-29T09:51:00;5.22;;;3.08;;
9761;SDS011;4920;49.594;11.022;2023-05-29T09:53:30;5.43;;;3.20;;
9761;SDS011;4920;49.594;11.022;2023-05-29T09:55:59;5.55;;;3.40;;
9761;SDS011;4920;49.594;11.022;2023-05-29T09:58:28;7.07;;;3.00;;
9761;SDS011;4920;49.594;11.022;2023-05-29T10:01:00;3.72;;;2.72;;
9761;SDS011;4920;49.594;11.022;2023-05-29T10:03:30;5.95;;;3.00;;
9761;SDS011;4920;49.594;11.022;2023-05-29T10:06:01;4.72;;;3.10;;
9761;SDS011;4920;49.594;11.022;2023-05-29T10:08:36;4.80;;;2.95;;
9761;SDS011;4920;49.594;11.022;2023-05-29T10:11:08;6.03;;;3.05;;
9761;SDS011;4920;49.594;11.022;2023-05-29T10:13:42;5.00;;;2.92;;
9761;SDS011;4920;49.594;11.022;2023-05-29T10:16:15;5.57;;;3.15;;
9761;SDS011;4920;49.594;11.022;2023-05-29T10:18:53;5.80;;;3.05;;
9761;SDS011;4920;49.594;11.022;2023-05-29T10:21:23;4.00;;;2.90;;
9761;SDS011;4920;49.594;11.022;2023-05-29T10:23:55;5.78;;;3.08;;
9761;SDS011;4920;49.594;11.022;2023-05-29T10:26:25;4.15;;;2.90;;
9761;SDS011;4920;49.594;11.022;2023-05-29T10:28:56;4.15;;;3.20;;
9761;SDS011;4920;49.594;11.022;2023-05-29T10:31:38;3.67;;;3.00;;
9761;SDS011;4920;49.594;11.022;2023-05-29T10:34:18;5.95;;;3.15;;
9761;SDS011;4920;49.594;11.022;2023-05-29T10:36:56;4.80;;;2.90;;
9761;SDS011;4920;49.594;11.022;2023-05-29T10:39:34;3.65;;;3.05;;
9761;SDS011;4920;49.594;11.022;2023-05-29T10:42:05;4.88;;;3.08;;
9761;SDS011;4920;49.594;11.022;2023-05-29T10:48:36;3.65;;;2.80;;
9761;SDS011;4920;49.594;11.022;2023-05-29T10:53:55;3.67;;;3.25;;
9761;SDS011;4920;49.594;11.022;2023-05-29T10:56:28;7.25;;;3.25;;
9761;SDS011;4920;49.594;11.022;2023-05-29T10:58:59;4.03;;;2.90;;
9761;SDS011;4920;49.594;11.022;2023-05-29T11:01:31;4.97;;;3.20;;
9761;SDS011;4920;49.594;11.022;2023-05-29T11:06:58;4.88;;;3.25;;
9761;SDS011;4920;49.594;11.022;2023-05-29T11:09:31;7.28;;;2.92;;
9761;SDS011;4920;49.594;11.022;2023-05-29T11:12:10;4.60;;;3.13;;
9761;SDS011;4920;49.594;11.022;2023-05-29T11:14:54;5.15;;;3.17;;
9761;SDS011;4920;49.594;11.022;2023-05-29T11:20:27;5.47;;;2.83;;
9761;SDS011;4920;49.594;11.022;2023-05-29T11:23:03;4.82;;;3.17;;
9761;SDS011;4920;49.594;11.022;2023-05-29T11:25:35;3.22;;;2.85;;
9761;SDS011;4920;49.594;11.022;2023-05-29T11:28:05;6.15;;;2.92;;
9761;SDS011;4920;49.594;11.022;2023-05-29T11:30:41;5.55;;;3.10;;
9761;SDS011;4920;49.594;11.022;2023-05-29T11:33:12;4.13;;;2.83;;
9761;SDS011;4920;49.594;11.022;2023-05-29T11:35:48;4.38;;;3.20;;
9761;SDS011;4920;49.594;11.022;2023-05-29T11:38:24;4.15;;;2.92;;
9761;SDS011;4920;49.594;11.022;2023-05-29T11:40:53;3.53;;;2.90;;
9761;SDS011;4920;49.594;11.022;2023-05-29T11:43:22;5.32;;;3.28;;
9761;SDS011;4920;49.594;11.022;2023-05-29T11:45:52;6.35;;;3.25;;
9761;SDS011;4920;49.594;11.022;2023-05-29T11:48:21;5.72;;;3.08;;
9761;SDS011;4920;49.594;11.022;2023-05-29T11:50:50;5.63;;;3.00;;
9761;SDS011;4920;49.594;11.022;2023-05-29T11:53:19;3.65;;;3.05;;
9761;SDS011;4920;49.594;11.022;2023-05-29T11:55:49;5.13;;;2.97;;
9761;SDS011;4920;49.594;11.022;2023-05-29T11:58:19;5.25;;;2.95;;
9761;SDS011;4920;49.594;11.022;2023-05-29T12:00:48;8.55;;;2.95;;
9761;SDS011;4920;49.594;11.022;2023-05-29T12:03:18;5.95;;;2.80;;
9761;SDS011;4920;49.594;11.022;2023-05-29T12:05:48;5.55;;;2.47;;
9761;SDS011;4920;49.594;11.022;2023-05-29T12:08:21;5.57;;;2.80;;
9761;SDS011;4920;49.594;11.022;2023-05-29T12:10:52;5.07;;;3.13;;
9761;SDS011;4920;49.594;11.022;2023-05-29T12:13:21;4.05;;;2.83;;
9761;SDS011;4920;49.594;11.022;2023-05-29T12:15:52;5.22;;;2.80;;
9761;SDS011;4920;49.594;11.022;2023-05-29T12:18:24;5.25;;;2.60;;
9761;SDS011;4920;49.594;11.022;2023-05-29T12:20:56;4.95;;;3.05;;
9761;SDS011;4920;49.594;11.022;2023-05-29T12:23:27;4.60;;;2.85;;
9761;SDS011;4920;49.594;11.022;2023-05-29T12:25:58;4.15;;;3.05;;
9761;SDS011;4920;49.594;11.022;2023-05-29T12:28:27;4.90;;;3.25;;
9761;SDS011;4920;49.594;11.022;2023-05-29T12:30:58;5.40;;;2.78;;
9761;SDS011;4920;49.594;11.022;2023-05-29T12:33:28;5.38;;;3.00;;
9761;SDS011;4920;49.594;11.022;2023-05-29T12:36:01;6.82;;;2.85;;
9761;SDS011;4920;49.594;11.022;2023-05-29T12:38:31;4.05;;;3.00;;
9761;SDS011;4920;49.594;11.022;2023-05-29T12:41:01;7.68;;;3.10;;
9761;SDS011;4920;49.594;11.022;2023-05-29T12:43:30;4.18;;;2.72;;
9761;SDS011;4920;49.594;11.022;2023-05-29T12:45:59;4.22;;;3.10;;
9761;SDS011;4920;49.594;11.022;2023-05-29T12:48:27;3.20;;;2.80;;
9761;SDS011;4920;49.594;11.022;2023-05-29T12:50:56;4.72;;;3.10;;
9761;SDS011;4920;49.594;11.022;2023-05-29T12:53:28;5.20;;;2.85;;
9761;SDS011;4920;49.594;11.022;2023-05-29T12:55:58;5.40;;;2.67;;
9761;SDS011;4920;49.594;11.022;2023-05-29T12:58:31;4.30;;;2.80;;
9761;SDS011;4920;49.594;11.022;2023-05-29T13:00:59;8.80;;;2.90;;
9761;SDS011;4920;49.594;11.022;2023-05-29T13:03:28;5.95;;;3.20;;
9761;SDS011;4920;49.594;11.022;2023-05-29T13:05:57;3.83;;;2.85;;
9761;SDS011;4920;49.594;11.022;2023-05-29T13:08:26;7.30;;;2.97;;
9761;SDS011;4920;49.594;11.022;2023-05-29T13:10:55;6.00;;;3.25;;
9761;SDS011;4920;49.594;11.022;2023-05-29T13:13:24;5.70;;;2.95;;
9761;SDS011;4920;49.594;11.022;2023-05-29T13:15:54;3.15;;;2.85;;
9761;SDS011;4920;49.594;11.022;2023-05-29T13:18:23;5.90;;;3.00;;
9761;SDS011;4920;49.594;11.022;2023-05-29T13:20:52;6.88;;;2.72;;
9761;SDS011;4920;49.594;11.022;2023-05-29T13:23:21;7.20;;;3.25;;
9761;SDS011;4920;49.594;11.022;2023-05-29T13:25:49;8.85;;;3.35;;
9761;SDS011;4920;49.594;11.022;2023-05-29T13:28:18;5.63;;;2.80;;
9761;SDS011;4920;49.594;11.022;2023-05-29T13:30:48;5.60;;;2.97;;
9761;SDS011;4920;49.594;11.022;2023-05-29T13:33:18;6.22;;;3.13;;
9761;SDS011;4920;49.594;11.022;2023-05-29T13:35:47;7.93;;;3.30;;
9761;SDS011;4920;49.594;11.022;2023-05-29T13:38:15;5.63;;;2.75;;
9761;SDS011;4920;49.594;11.022;2023-05-29T13:40:44;6.38;;;2.72;;
9761;SDS011;4920;49.594;11.022;2023-05-29T13:43:14;12.77;;;3.20;;
9761;SDS011;4920;49.594;11.022;2023-05-29T13:45:42;4.40;;;2.97;;
9761;SDS011;4920;49.594;11.022;2023-05-29T13:48:11;5.85;;;3.15;;
9761;SDS011;4920;49.594;11.022;2023-05-29T13:50:41;6.25;;;3.40;;
9761;SDS011;4920;49.594;11.022;2023-05-29T13:53:10;3.92;;;2.80;;
9761;SDS011;4920;49.594;11.022;2023-05-29T13:55:38;5.82;;;2.95;;
9761;SDS011;4920;49.594;11.022;2023-05-29T13:58:07;5.47;;;2.97;;
9761;SDS011;4920;49.594;11.022;2023-05-29T14:00:36;5.30;;;3.10;;
9761;SDS011;4920;49.594;11.022;2023-05-29T14:03:05;4.10;;;2.90;;
9761;SDS011;4920;49.594;11.022;2023-05-29T14:05:34;3.95;;;2.72;;
9761;SDS011;4920;49.594;11.022;2023-05-29T14:08:04;5.78;;;2.83;;
9761;SDS011;4920;49.594;11.022;2023-05-29T14:10:32;5.28;;;2.70;;
9761;SDS011;4920;49.594;11.022;2023-05-29T14:13:01;3.38;;;2.85;;
9761;SDS011;4920;49.594;11.022;2023-05-29T14:15:30;4.05;;;2.80;;
9761;SDS011;4920;49.594;11.022;2023-05-29T14:17:59;4.63;;;2.88;;
9761;SDS011;4920;49.594;11.022;2023-05-29T14:20:29;5.30;;;3.50;;
9761;SDS011;4920;49.594;11.022;2023-05-29T14:22:57;5.47;;;2.90;;
9761;SDS011;4920;49.594;11.022;2023-05-29T14:25:28;4.38;;;3.20;;
9761;SDS011;4920;49.594;11.022;2023-05-29T14:27:56;5.60;;;2.80;;
9761;SDS011;4920;49.594;11.022;2023-05-29T14:30:25;7.15;;;2.78;;
9761;SDS011;4920;49.594;11.022;2023-05-29T14:32:54;5.93;;;3.28;;
9761;SDS011;4920;49.594;11.022;2023-05-29T14:35:22;5.22;;;3.15;;
9761;SDS011;4920;49.594;11.022;2023-05-29T14:37:51;4.53;;;2.83;;
9761;SDS011;4920;49.594;11.022;2023-05-29T14:40:20;5.75;;;3.20;;
9761;SDS011;4920;49.594;11.022;2023-05-29T14:42:50;5.57;;;3.28;;
9761;SDS011;4920;49.594;11.022;2023-05-29T14:45:19;6.55;;;3.17;;
9761;SDS011;4920;49.594;11.022;2023-05-29T14:47:47;4.57;;;3.08;;
9761;SDS011;4920;49.594;11.022;2023-05-29T14:50:16;3.72;;;3.05;;
9761;SDS011;4920;49.594;11.022;2023-05-29T14:52:45;6.07;;;3.20;;
9761;SDS011;4920;49.594;11.022;2023-05-29T14:55:14;6.55;;;3.10;;
9761;SDS011;4920;49.594;11.022;2023-05-29T14:57:43;3.42;;;2.72;;
9761;SDS011;4920;49.594;11.022;2023-05-29T15:00:13;5.40;;;3.00;;
9761;SDS011;4920;49.594;11.022;2023-05-29T15:02:45;4.97;;;3.00;;
9761;SDS011;4920;49.594;11.022;2023-05-29T15:05:14;3.83;;;2.88;;
9761;SDS011;4920;49.594;11.022;2023-05-29T15:07:42;7.07;;;3.10;;
9761;SDS011;4920;49.594;11.022;2023-05-29T15:10:11;3.72;;;3.00;;
9761;SDS011;4920;49.594;11.022;2023-05-29T15:12:40;4.72;;;3.00;;
9761;SDS011;4920;49.594;11.022;2023-05-29T15:15:09;5.20;;;2.90;;
9761;SDS011;4920;49.594;11.022;2023-05-29T15:17:39;6.45;;;3.17;;
9761;SDS011;4920;49.594;11.022;2023-05-29T15:20:09;3.88;;;3.10;;
9761;SDS011;4920;49.594;11.022;2023-05-29T15:22:39;5.28;;;3.38;;
9761;SDS011;4920;49.594;11.022;2023-05-29T15:25:08;5.20;;;3.00;;
9761;SDS011;4920;49.594;11.022;2023-05-29T15:27:37;7.75;;;3.40;;
9761;SDS011;4920;49.594;11.022;2023-05-29T15:30:09;4.10;;;3.08;;
9761;SDS011;4920;49.594;11.022;2023-05-29T15:32:40;5.50;;;3.00;;
9761;SDS011;4920;49.594;11.022;2023-05-29T15:35:10;7.07;;;3.70;;